Time;durP1;ratioP1;P1;durP2;ratioP2;P2;SDS_P1;SDS_P2;PMS_P1;PMS_P2;Temp;Humidity;BMP_temperature;BMP_pressure;BME280_temperature;BME280_humidity;BME280_pressure;Samples;Min_cycle;Max_cycle;Signal;HPM_P1;HPM_P2
2022/09/30 00:00:36;;;;;;;3.43;3.23;;;19.00;92.00;;;;;;5052949;28;20453;-64
2022/09/30 00:03:03;;;;;;;4.00;3.60;;;19.00;91.90;;;;;;5051667;28;20445;-64
2022/09/30 00:05:30;;;;;;;5.67;3.07;;;19.00;91.90;;;;;;5052745;28;20471;-64
2022/09/30 00:07:57;;;;;;;3.30;3.00;;;19.00;91.90;;;;;;5068921;28;20436;-64
2022/09/30 00:10:24;;;;;;;4.33;4.03;;;19.00;91.90;;;;;;5071496;28;20520;-64
2022/09/30 00:12:52;;;;;;;3.23;3.03;;;18.90;91.90;;;;;;5071716;28;20473;-64
2022/09/30 00:15:20;;;;;;;3.97;3.67;;;19.00;91.90;;;;;;5069123;28;20479;-64
2022/09/30 00:17:47;;;;;;;3.60;3.40;;;18.90;91.90;;;;;;5051657;28;20444;-64
2022/09/30 00:20:14;;;;;;;3.07;2.87;;;18.90;91.90;;;;;;5051592;28;20867;-64
2022/09/30 00:22:43;;;;;;;3.10;2.90;;;18.90;91.90;;;;;;5051336;28;20816;-64
2022/09/30 00:25:11;;;;;;;4.00;3.47;;;18.90;92.00;;;;;;5052694;28;20878;-64
2022/09/30 00:27:38;;;;;;;3.40;3.10;;;18.90;92.00;;;;;;5071246;28;20444;-64
2022/09/30 00:30:05;;;;;;;3.30;3.10;;;18.90;92.00;;;;;;5071169;28;20501;-63
2022/09/30 00:32:33;;;;;;;4.03;3.30;;;18.90;91.90;;;;;;5070880;28;20443;-64
2022/09/30 00:35:00;;;;;;;4.10;3.70;;;18.90;91.90;;;;;;5063570;28;20826;-63
2022/09/30 00:37:27;;;;;;;4.23;3.50;;;18.90;91.90;;;;;;5067611;28;20964;-64
2022/09/30 00:39:54;;;;;;;3.43;3.10;;;18.90;91.90;;;;;;5053377;28;20891;-63
2022/09/30 00:42:21;;;;;;;3.27;2.97;;;18.90;92.00;;;;;;5060804;28;20440;-65
2022/09/30 00:44:54;;;;;;;4.00;3.57;;;18.90;92.00;;;;;;5054013;28;20468;-64
2022/09/30 00:47:40;;;;;;;3.80;3.50;;;18.80;91.90;;;;;;5072813;28;20508;-63
2022/09/30 00:50:20;;;;;;;2.93;2.67;;;18.80;92.00;;;;;;5073542;28;20982;-64
2022/09/30 00:52:52;;;;;;;4.23;3.70;;;18.80;92.00;;;;;;5074519;28;20924;-63
2022/09/30 00:55:29;;;;;;;3.33;3.13;;;18.80;92.00;;;;;;5068844;28;20597;-64
2022/09/30 00:57:57;;;;;;;3.40;3.07;;;18.80;92.00;;;;;;5069155;28;20443;-65
2022/09/30 01:00:24;;;;;;;3.93;3.63;;;18.80;91.90;;;;;;5068655;28;20448;-64
2022/09/30 01:02:53;;;;;;;3.93;3.17;;;18.80;92.00;;;;;;5063405;28;20509;-64
2022/09/30 01:05:20;;;;;;;3.40;3.10;;;18.80;92.00;;;;;;5074117;28;20471;-64
2022/09/30 01:07:49;;;;;;;3.63;3.33;;;18.80;92.00;;;;;;5072734;28;20870;-64
2022/09/30 01:10:16;;;;;;;3.30;3.10;;;18.70;92.00;;;;;;5054531;28;20828;-64
2022/09/30 01:12:43;;;;;;;3.20;3.00;;;18.70;91.90;;;;;;5054313;28;20445;-64
2022/09/30 01:15:10;;;;;;;4.97;2.60;;;18.70;91.90;;;;;;5054360;28;20476;-64
2022/09/30 01:17:48;;;;;;;2.80;2.60;;;18.70;91.90;;;;;;5056774;28;20946;-64
2022/09/30 01:20:41;;;;;;;6.20;5.03;;;18.70;92.00;;;;;;5074148;28;20488;-64
2022/09/30 01:23:41;;;;;;;3.60;2.90;;;18.70;91.90;;;;;;5073808;28;20941;-64
2022/09/30 01:26:44;;;;;;;4.30;3.93;;;18.70;91.90;;;;;;5067835;28;20440;-64
2022/09/30 01:29:44;;;;;;;3.30;3.10;;;18.70;92.00;;;;;;5029101;28;20493;-64
2022/09/30 01:32:21;;;;;;;3.40;3.10;;;18.70;92.00;;;;;;5073819;28;20454;-64
2022/09/30 01:34:58;;;;;;;3.10;2.90;;;18.60;92.00;;;;;;5073437;28;20800;-64
2022/09/30 01:37:38;;;;;;;4.27;3.87;;;18.70;92.00;;;;;;5053788;28;20497;-64
2022/09/30 01:40:09;;;;;;;3.20;3.00;;;18.60;91.90;;;;;;5053911;28;20549;-64
2022/09/30 01:42:45;;;;;;;3.00;2.80;;;18.60;91.90;;;;;;5053632;28;20444;-64
2022/09/30 01:45:17;;;;;;;3.70;3.37;;;18.60;91.90;;;;;;5053672;28;20467;-63
2022/09/30 01:47:48;;;;;;;3.90;3.70;;;18.60;91.90;;;;;;5053708;28;20863;-64
2022/09/30 01:50:20;;;;;;;3.33;3.13;;;18.60;91.90;;;;;;5053786;28;20445;-64
2022/09/30 01:52:53;;;;;;;3.63;3.37;;;18.60;91.90;;;;;;5053316;28;20448;-64
2022/09/30 01:55:27;;;;;;;3.80;3.47;;;18.60;91.90;;;;;;5053362;28;20827;-64
2022/09/30 01:57:59;;;;;;;4.83;3.23;;;18.60;91.90;;;;;;5053282;28;20934;-64
2022/09/30 02:00:26;;;;;;;3.27;2.83;;;18.60;91.90;;;;;;5053387;28;20440;-64
2022/09/30 02:02:58;;;;;;;3.63;3.30;;;18.60;91.90;;;;;;5053294;28;20444;-64
2022/09/30 02:05:30;;;;;;;3.80;3.40;;;18.60;91.90;;;;;;5052958;28;20464;-64
2022/09/30 02:08:01;;;;;;;3.50;3.20;;;18.50;91.90;;;;;;5053254;28;20444;-64
2022/09/30 02:10:33;;;;;;;3.30;3.00;;;18.60;91.90;;;;;;5053421;28;20444;-64
2022/09/30 02:13:04;;;;;;;2.83;2.43;;;18.60;91.90;;;;;;5053743;28;20445;-62
2022/09/30 02:15:38;;;;;;;4.40;4.10;;;18.50;91.90;;;;;;5053317;28;20862;-63
2022/09/30 02:18:14;;;;;;;3.67;3.43;;;18.50;91.90;;;;;;5057731;28;20499;-63
2022/09/30 02:20:43;;;;;;;3.70;3.20;;;18.50;91.90;;;;;;5072823;28;20447;-63
2022/09/30 02:23:15;;;;;;;2.60;2.50;;;18.50;91.90;;;;;;5072545;28;20440;-62
2022/09/30 02:25:46;;;;;;;3.47;2.93;;;18.50;91.90;;;;;;5072794;28;20569;-63
2022/09/30 02:28:19;;;;;;;2.93;2.60;;;18.50;91.90;;;;;;5067218;28;20448;-63
2022/09/30 02:30:51;;;;;;;3.23;2.93;;;18.50;91.90;;;;;;5062881;28;20513;-62
2022/09/30 02:33:24;;;;;;;3.17;2.97;;;18.50;91.90;;;;;;5057414;28;20534;-62
2022/09/30 02:35:54;;;;;;;3.57;3.27;;;18.50;91.90;;;;;;5054798;28;20456;-63
2022/09/30 02:38:24;;;;;;;2.50;2.40;;;18.50;91.90;;;;;;5070626;28;20865;-62
2022/09/30 02:40:57;;;;;;;3.07;2.87;;;18.50;91.90;;;;;;5055339;28;20449;-63
2022/09/30 02:43:25;;;;;;;3.17;2.97;;;18.40;91.80;;;;;;5072494;28;20448;-62
2022/09/30 02:46:04;;;;;;;3.20;3.00;;;18.40;91.80;;;;;;5053928;28;20941;-63
2022/09/30 02:48:41;;;;;;;3.23;2.93;;;18.40;91.80;;;;;;5055958;28;20448;-62
2022/09/30 02:51:15;;;;;;;3.27;2.97;;;18.40;91.80;;;;;;5059695;28;20969;-61
2022/09/30 02:53:47;;;;;;;3.30;3.10;;;18.40;91.80;;;;;;5052336;28;20547;-63
2022/09/30 02:56:23;;;;;;;3.47;3.17;;;18.40;91.90;;;;;;5053393;28;20444;-63
2022/09/30 02:58:52;;;;;;;3.43;3.23;;;18.40;91.90;;;;;;5062317;28;21014;-63
2022/09/30 03:01:20;;;;;;;2.90;2.70;;;18.40;91.90;;;;;;5055904;28;20448;-63
2022/09/30 03:03:51;;;;;;;3.43;3.13;;;18.40;91.90;;;;;;5052092;28;20468;-63
2022/09/30 03:06:19;;;;;;;3.20;3.00;;;18.40;91.90;;;;;;5051344;28;21045;-61
2022/09/30 03:08:47;;;;;;;4.63;2.87;;;18.40;91.90;;;;;;5052000;28;20809;-62
2022/09/30 03:11:16;;;;;;;4.33;4.00;;;18.40;91.80;;;;;;5051756;28;20448;-61
2022/09/30 03:14:17;;;;;;;2.70;2.53;;;18.40;91.80;;;;;;5051807;28;20467;-63
2022/09/30 03:17:00;;;;;;;3.30;3.00;;;18.40;91.80;;;;;;5033258;28;20784;-62
2022/09/30 03:19:41;;;;;;;3.27;3.03;;;18.40;91.90;;;;;;5051383;28;20849;-63
2022/09/30 03:22:27;;;;;;;3.27;3.07;;;18.30;91.90;;;;;;5051866;28;20444;-62
2022/09/30 03:25:15;;;;;;;3.03;2.73;;;18.30;91.90;;;;;;5051439;28;20830;-63
2022/09/30 03:27:50;;;;;;;4.20;3.10;;;18.30;91.90;;;;;;5051939;28;20929;-63
2022/09/30 03:30:20;;;;;;;2.87;2.70;;;18.30;91.90;;;;;;5051782;28;20440;-62
2022/09/30 03:32:59;;;;;;;3.20;2.60;;;18.30;92.00;;;;;;5052001;28;20571;-63
2022/09/30 03:35:33;;;;;;;2.70;2.50;;;18.30;91.90;;;;;;5051667;28;20522;-62
2022/09/30 03:38:10;;;;;;;3.20;3.00;;;18.30;91.90;;;;;;5052852;28;20452;-62
2022/09/30 03:40:43;;;;;;;2.70;2.50;;;18.30;91.90;;;;;;5051803;28;20483;-62
2022/09/30 03:43:19;;;;;;;3.23;3.00;;;18.30;92.00;;;;;;5051553;28;20448;-63
2022/09/30 03:45:54;;;;;;;2.77;2.57;;;18.30;92.00;;;;;;5051684;28;20448;-60
2022/09/30 03:48:22;;;;;;;3.10;2.90;;;18.30;92.00;;;;;;5069253;28;20443;-63
2022/09/30 03:50:52;;;;;;;3.60;3.30;;;18.30;92.00;;;;;;5070645;28;20562;-63
2022/09/30 03:53:19;;;;;;;3.53;3.33;;;18.20;91.90;;;;;;5071456;28;20479;-63
2022/09/30 03:55:48;;;;;;;2.57;2.43;;;18.20;92.00;;;;;;5071188;28;20531;-63
2022/09/30 03:58:15;;;;;;;3.60;3.20;;;18.20;92.00;;;;;;5071179;28;20458;-63
2022/09/30 04:00:47;;;;;;;2.90;2.70;;;18.20;92.00;;;;;;5051458;28;20472;-63
2022/09/30 04:03:14;;;;;;;3.30;3.00;;;18.20;92.00;;;;;;5051108;28;20974;-63
2022/09/30 04:05:41;;;;;;;2.80;2.60;;;18.20;92.00;;;;;;5055289;28;20530;-63
2022/09/30 04:08:10;;;;;;;2.90;2.40;;;18.20;91.90;;;;;;5064875;28;20540;-62
2022/09/30 04:10:36;;;;;;;3.00;2.80;;;18.20;91.90;;;;;;5069932;28;20987;-61
2022/09/30 04:13:03;;;;;;;2.77;2.60;;;18.20;91.80;;;;;;5071285;28;20454;-60
2022/09/30 04:15:30;;;;;;;3.83;2.90;;;18.20;91.70;;;;;;5051385;28;20906;-62
2022/09/30 04:17:58;;;;;;;2.23;2.10;;;18.20;91.70;;;;;;5051387;28;20531;-60
2022/09/30 04:20:25;;;;;;;3.10;2.90;;;18.20;91.70;;;;;;5071301;28;20928;-62
2022/09/30 04:22:52;;;;;;;3.17;2.87;;;18.20;91.60;;;;;;5074933;28;20539;-60
2022/09/30 04:25:20;;;;;;;2.77;2.67;;;18.20;91.60;;;;;;5075007;28;20983;-62
2022/09/30 04:27:46;;;;;;;3.33;3.13;;;18.20;91.50;;;;;;5075068;28;20445;-61
2022/09/30 04:30:13;;;;;;;2.63;2.43;;;18.10;91.40;;;;;;5059764;28;20961;-61
2022/09/30 04:32:44;;;;;;;2.73;2.53;;;18.10;91.40;;;;;;5054926;28;20448;-57
2022/09/30 04:35:12;;;;;;;2.53;2.33;;;18.10;91.40;;;;;;5055024;28;20475;-62
2022/09/30 04:37:42;;;;;;;2.67;2.47;;;18.10;91.40;;;;;;5056253;28;20440;-60
2022/09/30 04:40:09;;;;;;;4.63;2.70;;;18.10;91.30;;;;;;5057777;28;20476;-61
2022/09/30 04:42:38;;;;;;;3.10;2.80;;;18.10;91.30;;;;;;5074800;28;20450;-61
2022/09/30 04:45:06;;;;;;;2.93;2.73;;;18.10;91.30;;;;;;5068847;28;20466;-59
2022/09/30 04:47:33;;;;;;;2.70;2.57;;;18.10;91.20;;;;;;5055983;28;20440;-60
2022/09/30 04:50:00;;;;;;;2.10;2.00;;;18.10;91.30;;;;;;5056025;28;20444;-59
2022/09/30 04:52:27;;;;;;;2.90;2.70;;;18.10;91.30;;;;;;5065415;28;20874;-62
2022/09/30 04:54:54;;;;;;;2.90;2.70;;;18.10;91.20;;;;;;5054714;28;20503;-63
2022/09/30 04:57:21;;;;;;;2.90;2.47;;;18.10;91.20;;;;;;5070602;28;21074;-61
2022/09/30 04:59:50;;;;;;;2.30;2.17;;;18.10;91.10;;;;;;5062005;28;20506;-60
2022/09/30 05:02:17;;;;;;;2.47;2.37;;;18.10;91.20;;;;;;5074408;28;20451;-61
2022/09/30 05:04:44;;;;;;;3.87;2.43;;;18.10;91.10;;;;;;5072736;28;20498;-61
2022/09/30 05:07:11;;;;;;;6.53;3.27;;;18.10;91.10;;;;;;5056318;28;20479;-61
2022/09/30 05:09:38;;;;;;;5.10;2.90;;;18.10;91.30;;;;;;5054504;28;20989;-62
2022/09/30 05:12:05;;;;;;;6.23;3.10;;;18.10;92.00;;;;;;5054361;28;20543;-61
2022/09/30 05:14:32;;;;;;;18.93;4.93;;;18.10;93.30;;;;;;5054649;28;20559;-59
2022/09/30 05:17:00;;;;;;;14.50;4.83;;;18.10;97.50;;;;;;5074041;28;20478;-61
2022/09/30 05:19:27;;;;;;;12.23;5.20;;;18.10;97.90;;;;;;5074220;28;21020;-68
2022/09/30 05:21:54;;;;;;;15.90;5.77;;;18.10;99.90;;;;;;5073963;28;20448;-68
2022/09/30 05:24:21;;;;;;;13.50;6.00;;;18.10;99.90;;;;;;5072351;28;20474;-71
2022/09/30 05:26:48;;;;;;;14.20;5.37;;;18.20;99.90;;;;;;5074244;28;20849;-71
2022/09/30 05:29:15;;;;;;;14.43;6.33;;;18.10;99.90;;;;;;5073719;28;20522;-69
2022/09/30 15:08:23;;;;;;;0.80;0.80;;;20.10;98.10;;;;;;5088616;28;20662;-62
2022/09/30 15:10:53;;;;;;;0.90;0.90;;;20.20;98.20;;;;;;5089102;28;20961;-58
2022/09/30 15:13:22;;;;;;;42.17;24.30;;;20.20;98.30;;;;;;5078548;28;20501;-59
2022/09/30 15:15:49;;;;;;;22.23;11.70;;;20.20;98.10;;;;;;5068898;28;20439;-65
2022/09/30 15:18:34;;;;;;;8.90;4.90;;;20.20;97.80;;;;;;5070160;28;20528;-67
2022/09/30 15:21:08;;;;;;;7.70;5.00;;;20.30;97.10;;;;;;5070742;28;21045;-68
2022/09/30 15:23:40;;;;;;;21.93;10.97;;;20.30;96.80;;;;;;5069942;28;21019;-66
2022/09/30 15:26:07;;;;;;;12.67;6.20;;;20.40;96.80;;;;;;5071451;28;20858;-65
2022/09/30 15:28:35;;;;;;;21.83;11.50;;;20.40;96.40;;;;;;5071214;28;20471;-66
2022/09/30 15:31:03;;;;;;;10.67;6.73;;;20.40;96.60;;;;;;5070282;28;20452;-66
2022/09/30 15:33:31;;;;;;;9.53;6.50;;;20.40;96.30;;;;;;5068873;28;20467;-66
2022/09/30 15:36:04;;;;;;;13.27;7.43;;;20.50;96.40;;;;;;5071435;28;20455;-71
2022/09/30 15:38:34;;;;;;;8.30;5.80;;;20.50;96.50;;;;;;5072893;28;20440;-70
2022/09/30 15:41:05;;;;;;;9.93;6.50;;;20.60;95.70;;;;;;5073254;28;20534;-71
2022/09/30 15:43:36;;;;;;;9.90;6.00;;;20.60;95.30;;;;;;5069250;28;20467;-66
2022/09/30 15:46:26;;;;;;;8.50;5.93;;;20.60;95.50;;;;;;5070161;28;20447;-63
2022/09/30 15:48:55;;;;;;;12.20;5.30;;;20.60;95.00;;;;;;5069379;28;20452;-62
2022/09/30 15:51:36;;;;;;;7.87;5.20;;;20.60;95.30;;;;;;5065778;28;20541;-65
2022/09/30 15:54:33;;;;;;;7.10;5.70;;;20.60;94.90;;;;;;5069965;28;20878;-64
2022/09/30 15:57:03;;;;;;;11.70;5.10;;;20.70;94.60;;;;;;5070039;28;20956;-61
2022/09/30 16:00:00;;;;;;;5.83;4.87;;;20.70;94.40;;;;;;5072490;28;20447;-65
2022/09/30 16:02:28;;;;;;;8.90;5.20;;;20.70;94.20;;;;;;5071933;28;20521;-64
2022/09/30 16:04:56;;;;;;;4.97;4.47;;;20.70;94.10;;;;;;5070531;28;20531;-66
2022/09/30 16:07:27;;;;;;;5.23;4.33;;;20.70;93.90;;;;;;5070705;28;20934;-65
2022/09/30 16:09:55;;;;;;;7.80;4.47;;;20.70;93.90;;;;;;5069157;28;20468;-66
2022/09/30 16:12:27;;;;;;;5.77;4.30;;;20.70;93.70;;;;;;5068125;28;20458;-67
2022/09/30 16:14:56;;;;;;;5.40;4.00;;;20.80;93.60;;;;;;5067755;28;20551;-66
2022/09/30 16:17:25;;;;;;;7.07;4.10;;;20.80;93.50;;;;;;5067722;28;20539;-66
2022/09/30 16:19:54;;;;;;;4.77;4.07;;;20.80;93.40;;;;;;5054504;28;20467;-69
2022/09/30 16:22:50;;;;;;;3.10;2.90;;;20.80;93.70;;;;;;5058324;28;20448;-66
2022/09/30 16:25:21;;;;;;;2.30;1.57;;;20.60;92.30;;;;;;5055329;28;20456;-65
2022/09/30 16:27:53;;;;;;;2.53;2.30;;;20.50;92.50;;;;;;5054072;28;21080;-65
2022/09/30 16:30:21;;;;;;;2.53;2.10;;;20.50;92.60;;;;;;5054376;28;20455;-64
2022/09/30 16:32:50;;;;;;;1.93;1.83;;;20.50;92.60;;;;;;5054707;28;20471;-64
2022/09/30 16:35:19;;;;;;;3.43;2.07;;;20.40;92.60;;;;;;5055143;28;20484;-58
2022/09/30 16:37:47;;;;;;;2.13;1.90;;;20.40;92.40;;;;;;5054116;28;20527;-62
2022/09/30 16:40:21;;;;;;;5.60;2.67;;;20.40;92.80;;;;;;5054188;28;20952;-64
2022/09/30 16:42:50;;;;;;;3.47;2.97;;;20.40;92.80;;;;;;5053830;28;20467;-63
2022/09/30 16:45:17;;;;;;;2.40;2.03;;;20.40;93.50;;;;;;5053963;28;20445;-61
2022/09/30 16:47:45;;;;;;;3.37;2.40;;;20.40;92.80;;;;;;5054403;28;20567;-62
2022/09/30 16:50:28;;;;;;;3.10;2.40;;;20.30;93.10;;;;;;5054168;28;20531;-62
2022/09/30 16:52:55;;;;;;;2.47;2.27;;;20.30;92.90;;;;;;5051785;28;20829;-62
2022/09/30 16:55:22;;;;;;;4.50;1.90;;;20.30;92.90;;;;;;5054121;28;20501;-63
2022/09/30 16:57:50;;;;;;;1.97;1.87;;;20.30;92.90;;;;;;5055382;28;20443;-66
2022/09/30 17:00:17;;;;;;;7.93;2.93;;;20.30;93.10;;;;;;5056073;28;20531;-63
2022/09/30 17:02:45;;;;;;;2.40;2.20;;;20.30;93.10;;;;;;5053697;28;20897;-65
2022/09/30 17:05:14;;;;;;;2.57;1.93;;;20.30;93.00;;;;;;5053589;28;20449;-61
2022/09/30 17:07:43;;;;;;;1.87;1.73;;;20.30;93.00;;;;;;5053139;28;20484;-63
2022/09/30 17:10:18;;;;;;;1.90;1.80;;;20.30;93.00;;;;;;5053442;28;20436;-62
2022/09/30 17:12:45;;;;;;;2.33;2.10;;;20.30;93.00;;;;;;5053616;28;20856;-63
2022/09/30 17:15:13;;;;;;;3.03;1.67;;;20.30;93.00;;;;;;5053509;28;20811;-63
2022/09/30 17:17:40;;;;;;;3.80;2.03;;;20.30;93.10;;;;;;5053104;28;20444;-63
2022/09/30 17:20:08;;;;;;;2.10;1.97;;;20.30;93.10;;;;;;5053626;28;20472;-66
2022/09/30 17:22:35;;;;;;;2.20;1.90;;;20.30;93.20;;;;;;5052864;28;20556;-68
2022/09/30 17:25:02;;;;;;;1.70;1.60;;;20.30;93.20;;;;;;5053400;28;20451;-64
2022/09/30 17:27:28;;;;;;;1.63;1.50;;;20.20;93.40;;;;;;5052540;28;20479;-66
2022/09/30 17:29:55;;;;;;;1.80;1.50;;;20.20;93.80;;;;;;5052264;28;20440;-64
2022/09/30 17:32:24;;;;;;;2.53;1.50;;;20.20;93.40;;;;;;5059352;28;20471;-62
2022/09/30 17:34:51;;;;;;;1.80;1.70;;;20.20;93.40;;;;;;5064824;28;20467;-63
2022/09/30 17:37:18;;;;;;;1.80;1.60;;;20.20;93.40;;;;;;5064340;28;20436;-63
2022/09/30 17:39:45;;;;;;;1.37;1.27;;;20.30;93.30;;;;;;5064056;28;20444;-63
2022/09/30 17:44:58;;;;;;;2.77;2.50;;;20.30;93.00;;;;;;5063656;28;20785;-62
2022/09/30 17:47:26;;;;;;;1.70;1.57;;;20.40;92.60;;;;;;5062720;28;20690;-63
2022/09/30 17:49:54;;;;;;;1.50;1.20;;;20.30;92.40;;;;;;5064676;28;20523;-62
2022/09/30 17:52:23;;;;;;;1.67;1.57;;;20.40;92.20;;;;;;5065749;28;20496;-62
2022/09/30 17:54:50;;;;;;;3.37;1.80;;;20.40;92.10;;;;;;5062229;28;20865;-62
2022/09/30 17:57:18;;;;;;;1.80;1.40;;;20.40;91.90;;;;;;5062796;28;20440;-62
2022/09/30 17:59:45;;;;;;;1.30;1.20;;;20.40;91.80;;;;;;5064373;28;20452;-62
2022/09/30 18:02:14;;;;;;;0.97;0.80;;;20.40;91.70;;;;;;5067258;28;20455;-62
2022/09/30 18:04:42;;;;;;;1.20;1.20;;;20.40;91.50;;;;;;5067114;28;20487;-62
2022/09/30 18:07:09;;;;;;;0.93;0.93;;;20.40;91.70;;;;;;5066302;28;21064;-62
2022/09/30 18:09:38;;;;;;;1.13;1.03;;;20.40;91.30;;;;;;5064242;28;20448;-62
2022/09/30 18:12:06;;;;;;;1.47;1.37;;;20.40;91.30;;;;;;5063890;28;20447;-62
2022/09/30 18:14:34;;;;;;;1.20;1.20;;;20.40;91.20;;;;;;5063476;28;20448;-62
2022/09/30 18:17:02;;;;;;;0.90;0.90;;;20.40;91.10;;;;;;5063572;28;20508;-62
2022/09/30 18:19:29;;;;;;;1.50;1.40;;;20.40;91.00;;;;;;5063485;28;20513;-62
2022/09/30 18:21:57;;;;;;;0.80;0.80;;;20.40;90.90;;;;;;5064901;28;20433;-62
2022/09/30 18:27:05;;;;;;;1.90;1.67;;;20.40;90.80;;;;;;5062787;28;20494;-61
2022/09/30 18:29:31;;;;;;;1.23;0.97;;;20.40;90.70;;;;;;5063544;28;20436;-62
2022/09/30 18:31:58;;;;;;;1.10;0.90;;;20.40;90.60;;;;;;5064060;28;20498;-62
2022/09/30 18:34:25;;;;;;;1.03;1.03;;;20.40;90.60;;;;;;5063818;28;20481;-63
2022/09/30 18:36:52;;;;;;;2.37;1.40;;;20.40;90.60;;;;;;5063565;28;20468;-62
2022/09/30 18:39:21;;;;;;;0.90;0.83;;;20.40;90.50;;;;;;5063304;28;20544;-62
2022/09/30 18:41:48;;;;;;;1.07;1.07;;;20.40;90.50;;;;;;5062424;28;20483;-63
2022/09/30 18:44:15;;;;;;;1.77;1.30;;;20.40;90.40;;;;;;5063121;28;20488;-63
2022/09/30 18:46:42;;;;;;;0.80;0.80;;;20.40;90.30;;;;;;5063269;28;20475;-63
2022/09/30 18:49:09;;;;;;;1.80;1.63;;;20.40;90.30;;;;;;5063612;28;20660;-62
2022/09/30 18:51:36;;;;;;;0.80;0.73;;;20.40;90.30;;;;;;5062568;28;20451;-63
2022/09/30 18:54:04;;;;;;;1.10;1.00;;;20.40;90.20;;;;;;5062521;28;20472;-63
2022/09/30 18:56:33;;;;;;;1.00;1.00;;;20.30;90.10;;;;;;5063225;28;20460;-62
2022/09/30 18:59:03;;;;;;;1.30;1.03;;;20.30;90.00;;;;;;5064215;28;20508;-63
2022/09/30 19:01:31;;;;;;;1.00;1.00;;;20.40;90.10;;;;;;5065925;28;20463;-62
2022/09/30 19:03:58;;;;;;;1.60;1.50;;;20.30;90.00;;;;;;5067132;28;20500;-62
2022/09/30 19:06:25;;;;;;;0.80;0.80;;;20.30;89.90;;;;;;5063610;28;20448;-63
2022/09/30 19:08:52;;;;;;;0.93;0.80;;;20.30;89.90;;;;;;5062379;28;20515;-63
2022/09/30 19:11:18;;;;;;;0.80;0.80;;;20.30;89.80;;;;;;5065406;28;20483;-63
2022/09/30 19:13:48;;;;;;;0.87;0.83;;;20.30;89.70;;;;;;5063894;28;20495;-62
2022/09/30 19:16:18;;;;;;;1.20;1.20;;;20.30;89.60;;;;;;5065147;28;20453;-63
2022/09/30 19:18:46;;;;;;;1.70;1.00;;;20.30;89.40;;;;;;5064240;28;20440;-62
2022/09/30 19:21:15;;;;;;;1.00;1.00;;;20.30;89.40;;;;;;5065092;28;20467;-63
2022/09/30 19:23:42;;;;;;;1.13;1.10;;;20.30;89.20;;;;;;5064268;28;20492;-62
2022/09/30 19:26:13;;;;;;;1.57;0.90;;;20.30;89.80;;;;;;5064158;28;20472;-63
2022/09/30 19:28:40;;;;;;;1.30;1.30;;;20.30;88.90;;;;;;5062474;28;20491;-62
2022/09/30 19:31:10;;;;;;;0.70;0.70;;;20.30;88.90;;;;;;5063974;28;20496;-63
2022/09/30 19:33:37;;;;;;;1.57;1.07;;;20.30;88.80;;;;;;5064031;28;20464;-62
2022/09/30 19:36:06;;;;;;;0.83;0.83;;;20.30;88.70;;;;;;5063861;28;20472;-63
2022/09/30 19:38:34;;;;;;;0.93;0.80;;;20.30;88.70;;;;;;5062317;28;20993;-62
2022/09/30 19:41:01;;;;;;;0.83;0.80;;;20.30;88.60;;;;;;5064071;28;20516;-62
2022/09/30 19:43:29;;;;;;;1.37;0.83;;;20.30;88.40;;;;;;5063234;28;20488;-63
2022/09/30 19:45:57;;;;;;;1.00;1.00;;;20.30;88.40;;;;;;5062499;28;20436;-62
2022/09/30 19:48:26;;;;;;;1.33;0.83;;;20.30;88.30;;;;;;5063923;28;20508;-61
2022/09/30 19:51:01;;;;;;;0.73;0.73;;;20.30;88.10;;;;;;5064156;28;20517;-62
2022/09/30 19:53:29;;;;;;;0.93;0.93;;;20.30;88.10;;;;;;5065211;28;21009;-63
2022/09/30 19:56:00;;;;;;;0.70;0.70;;;20.30;88.10;;;;;;5067926;28;20479;-63
2022/09/30 19:58:31;;;;;;;1.03;1.03;;;20.20;87.90;;;;;;5069543;28;20443;-62
2022/09/30 20:00:58;;;;;;;1.00;1.00;;;20.30;87.90;;;;;;5070858;28;20445;-62
2022/09/30 20:03:28;;;;;;;0.80;0.80;;;20.20;87.70;;;;;;5071010;28;20469;-62
2022/09/30 20:06:03;;;;;;;0.70;0.70;;;20.20;87.70;;;;;;5070332;28;20495;-61
2022/09/30 20:08:31;;;;;;;0.90;0.90;;;20.20;87.70;;;;;;5067608;28;20523;-62
2022/09/30 20:11:02;;;;;;;0.93;0.93;;;20.20;87.60;;;;;;5066950;28;20452;-63
2022/09/30 20:13:29;;;;;;;0.73;0.73;;;20.20;87.70;;;;;;5066515;28;20487;-61
2022/09/30 20:15:59;;;;;;;0.70;0.70;;;20.20;87.80;;;;;;5067632;28;20536;-62
2022/09/30 20:18:27;;;;;;;1.00;1.00;;;20.20;87.70;;;;;;5067325;28;20436;-62
2022/09/30 20:20:54;;;;;;;0.93;0.93;;;20.20;87.60;;;;;;5067504;28;20468;-62
2022/09/30 20:23:22;;;;;;;1.07;1.00;;;20.20;87.60;;;;;;5067022;28;20472;-63
2022/09/30 20:25:50;;;;;;;0.80;0.80;;;20.20;87.60;;;;;;5067037;28;20445;-62
2022/09/30 20:28:17;;;;;;;1.00;1.00;;;20.10;87.50;;;;;;5066530;28;20480;-63
2022/09/30 20:30:45;;;;;;;0.80;0.80;;;20.20;87.50;;;;;;5065978;28;20476;-65
2022/09/30 20:33:14;;;;;;;0.90;0.90;;;20.10;87.50;;;;;;5063486;28;21029;-63
2022/09/30 20:35:43;;;;;;;1.40;0.90;;;20.10;88.70;;;;;;5062109;28;20512;-63
2022/09/30 20:38:13;;;;;;;1.00;1.00;;;20.10;89.80;;;;;;5066124;28;20440;-64
2022/09/30 20:40:40;;;;;;;1.73;1.30;;;20.00;90.30;;;;;;5055015;28;20472;-64
2022/09/30 20:43:08;;;;;;;5.60;4.27;;;20.10;91.20;;;;;;5055045;28;21011;-63
2022/09/30 20:45:39;;;;;;;9.13;6.80;;;20.10;91.90;;;;;;5054348;28;20487;-62
2022/09/30 20:48:07;;;;;;;12.60;7.30;;;20.10;93.10;;;;;;5054179;28;20511;-61
2022/09/30 20:50:37;;;;;;;8.67;6.90;;;20.00;94.40;;;;;;5054226;28;20455;-63
2022/09/30 20:53:08;;;;;;;11.87;7.20;;;20.00;95.10;;;;;;5054576;28;20530;-62
2022/09/30 20:55:37;;;;;;;12.30;8.17;;;20.00;95.50;;;;;;5054345;28;20444;-63
2022/09/30 20:58:05;;;;;;;8.50;6.27;;;20.00;95.60;;;;;;5054124;28;20817;-62
2022/09/30 21:00:33;;;;;;;7.30;6.60;;;20.00;95.70;;;;;;5053614;28;20456;-62
2022/09/30 21:03:00;;;;;;;9.73;7.33;;;20.00;95.70;;;;;;5055162;28;20480;-64
2022/09/30 21:05:28;;;;;;;7.30;6.53;;;20.00;95.20;;;;;;5054664;28;20448;-63
2022/09/30 21:07:55;;;;;;;8.43;6.60;;;20.00;95.10;;;;;;5056268;28;20479;-66
2022/09/30 21:10:24;;;;;;;7.93;6.60;;;20.00;94.90;;;;;;5055250;28;20444;-66
2022/09/30 21:12:51;;;;;;;10.30;7.50;;;20.00;94.40;;;;;;5056087;28;20460;-66
2022/09/30 21:15:18;;;;;;;6.73;5.43;;;20.00;94.10;;;;;;5056257;28;20946;-64
2022/09/30 21:17:45;;;;;;;7.13;5.30;;;20.10;94.00;;;;;;5055610;28;20440;-64
2022/09/30 21:20:12;;;;;;;7.00;6.20;;;20.10;94.00;;;;;;5055216;28;20495;-60
2022/09/30 21:22:41;;;;;;;9.13;6.97;;;20.10;93.90;;;;;;5053443;28;20469;-61
2022/09/30 21:25:11;;;;;;;7.10;5.20;;;20.20;93.80;;;;;;5052547;28;20460;-65
2022/09/30 21:27:40;;;;;;;5.80;4.90;;;20.20;94.40;;;;;;5053600;28;20766;-63
2022/09/30 21:30:09;;;;;;;11.23;6.03;;;20.20;93.70;;;;;;5053127;28;20484;-66
2022/09/30 21:32:37;;;;;;;6.80;6.17;;;20.20;94.60;;;;;;5053155;28;20468;-62
2022/09/30 21:35:05;;;;;;;7.70;5.73;;;20.30;94.30;;;;;;5053226;28;20440;-62
2022/09/30 21:37:32;;;;;;;9.70;6.13;;;20.30;94.20;;;;;;5052990;28;20816;-64
2022/09/30 21:40:00;;;;;;;7.93;5.73;;;20.30;94.20;;;;;;5053153;28;20444;-64
